KSYN/SYN METAR and TAF weather

Enter ICAO airport designator
Station Type Date Time Source
KSYN METAR 2020/01/28 20:55 UTC NOAA

KSYN 282055Z AUTO 00000KT 10SM OVC012 M07/M09 A3012 RMK AO2 T10661093


Station Type Date Time Source
KSYN Decoded METAR 2020/01/28 20:55 UTC NOAA

Stanton, Stanton Airfield, MN, United States (KSYN) 44-28-31N 093-00-58W
Jan 28, 2020 - 03:55 PM EST / 2020.01.28 2055 UTC
Wind: Calm:0
Visibility: 10 mile(s):0
Sky conditions: overcast
Temperature: 20.1 F (-6.6 C)
Dew Point: 15.3 F (-9.3 C)
Relative Humidity: 81%
Pressure (altimeter): 30.12 in. Hg (1019 hPa)
ob: KSYN 282055Z AUTO 00000KT 10SM OVC012 M07/M09 A3012 RMK AO2 T10661093
cycle: 21

Station Type Date Time Source
KSYN TAF UTC NOAA

Error!

Example: see airport list